28. Mai 2022

Uhrzeit Code Wetter Temp. Sichtweite Wolkendecke Wind METAR/SPECI
6:00 pm
V
86 °F 6¼ mi+ - 360° 360° 13 kt METAR LFMT 281600Z AUTO 36013KT CAVOK 30/05 Q1007 TEMPO 01020G30KT
5:30 pm
V
86 °F 6¼ mi+ - 020° 020° 14 kt METAR LFMT 281530Z AUTO 02014KT CAVOK 30/05 Q1008 TEMPO 01020G30KT
5:00 pm
V
86 °F 6¼ mi+ - 360° 360° 14 kt METAR LFMT 281500Z AUTO 36014KT CAVOK 30/05 Q1008 TEMPO 01020G30KT
4:30 pm
V
86 °F 6¼ mi+ - 010° 010° 12 kt METAR LFMT 281430Z AUTO 01012KT CAVOK 30/05 Q1008 TEMPO 01015G25KT
4:00 pm
V
84 °F 6¼ mi+ - 020° 020° 13 kt METAR LFMT 281400Z AUTO 02013KT CAVOK 29/05 Q1009 TEMPO 01015G25KT
3:30 pm
V
86 °F 5⅝ mi - 010° 010° 14 kt METAR LFMT 281330Z AUTO 01014KT 340V040 9000 NSC 30/04 Q1009 TEMPO 01015G25KT
3:00 pm
V
86 °F 5⅝ mi - 010° 010° 15 kt METAR LFMT 281300Z AUTO 01015KT 350V050 9000 NSC 30/04 Q1010 TEMPO 01015G25KT
2:30 pm
V
86 °F 5⅝ mi - 020° 020° 14 kt METAR LFMT 281230Z AUTO 02014KT 340V040 9000 NSC 30/04 Q1010 TEMPO 01015G25KT
2:00 pm
V
84 °F 5⅝ mi - 020° 020° 14 kt METAR LFMT 281200Z AUTO 02014KT 9000 NSC 29/04 Q1011 TEMPO 01015G25KT
1:30 pm
V
82 °F 6¼ mi+ - 010° 010° 15 kt METAR LFMT 281130Z AUTO 01015KT 340V040 CAVOK 28/05 Q1011 TEMPO 01015G25KT
1:00 pm
V
82 °F 6¼ mi+ - 010° 010° 16 kt METAR LFMT 281100Z AUTO 01016KT CAVOK 28/05 Q1012 TEMPO 01015G25KT
12:30 pm
V
81 °F 6¼ mi+ - 010° 010° 15 kt METAR LFMT 281030Z AUTO 01015KT 340V040 CAVOK 27/03 Q1012 TEMPO 01015G25KT
12:00 pm
V
79 °F 6¼ mi+ - 010° 010° 18 kt METAR LFMT 281000Z AUTO 01018KT CAVOK 26/04 Q1012 TEMPO 01015G25KT
11:30 am
V
81 °F 6¼ mi+ - 010° 010° 17 kt METAR LFMT 280930Z AUTO 01017KT CAVOK 27/07 Q1012 TEMPO 01015G25KT
11:00 am
V
81 °F 6¼ mi+ - 010° 010° 13 kt METAR LFMT 280900Z AUTO 01013KT CAVOK 27/10 Q1012 TEMPO 01015G25KT
10:30 am
V
77 °F 6¼ mi+ - 010° 010° 15 kt METAR LFMT 280830Z AUTO 01015KT CAVOK 25/10 Q1013 NOSIG
10:00 am
V
77 °F 6¼ mi+ - 360° 360° 16 kt METAR LFMT 280800Z AUTO 36016KT CAVOK 25/11 Q1013 NOSIG
9:30 am
V
75 °F 6¼ mi+ - 360° 360° 11 kt METAR LFMT 280730Z AUTO 36011KT CAVOK 24/10 Q1013 NOSIG
9:00 am
V
75 °F 6¼ mi+ - 360° 360° 12 kt METAR LFMT 280700Z AUTO 36012KT 330V030 CAVOK 24/11 Q1014 NOSIG
8:30 am
V
72 °F 6¼ mi+ - 320° 320° 3 kt METAR LFMT 280630Z AUTO 32003KT 260V050 CAVOK 22/12 Q1014 NOSIG
8:00 am
V
70 °F 6¼ mi+ - 310° 310° 4 kt METAR LFMT 280600Z AUTO 31004KT 280V340 CAVOK 21/12 Q1014 NOSIG
7:30 am
V
68 °F 6¼ mi+ - Var Var 3 kt METAR LFMT 280530Z AUTO VRB03KT CAVOK 20/12 Q1014 NOSIG
7:00 am
V
66 °F 6¼ mi+ - 310° 310° 6 kt METAR LFMT 280500Z AUTO 31006KT 270V350 CAVOK 19/12 Q1014 NOSIG
6:30 am
V
66 °F 6¼ mi+ - 320° 320° 6 kt METAR LFMT 280430Z AUTO 32006KT CAVOK 19/10 Q1014 NOSIG
6:00 am
V
64 °F 6¼ mi+ - 310° 310° 6 kt METAR LFMT 280400Z AUTO 31006KT CAVOK 18/10 Q1014 BECMG 01012KT
5:30 am
V
64 °F 6¼ mi+ - 330° 330° 7 kt METAR LFMT 280330Z AUTO 33007KT CAVOK 18/10 Q1014 NOSIG
5:00 am
V
64 °F 6¼ mi+ - 350° 350° 8 kt METAR LFMT 280300Z AUTO 35008KT CAVOK 18/10 Q1015 NOSIG
4:30 am
V
64 °F 6¼ mi+ - 360° 360° 9 kt METAR LFMT 280230Z AUTO 36009KT CAVOK 18/10 Q1015 NOSIG
4:00 am
V
63 °F 6¼ mi+ - 350° 350° 6 kt METAR LFMT 280200Z AUTO 35006KT CAVOK 17/10 Q1015 NOSIG
3:30 am
V
66 °F 6¼ mi+ - 340° 340° 5 kt METAR LFMT 280130Z AUTO 34005KT CAVOK 19/11 Q1016 NOSIG
3:00 am
V
68 °F 6¼ mi+ - 360° 360° 5 kt METAR LFMT 280100Z AUTO 36005KT 330V030 CAVOK 20/11 Q1016 NOSIG
2:30 am
V
68 °F 6¼ mi+ - 010° 010° 12 kt METAR LFMT 280030Z AUTO 01012KT CAVOK 20/11 Q1016 NOSIG
2:00 am
V
70 °F 6¼ mi+ - 010° 010° 10 kt METAR LFMT 280000Z AUTO 01010KT CAVOK 21/11 Q1016 NOSIG
1:30 am
V
70 °F 6¼ mi+ - 010° 010° 10 kt METAR LFMT 272330Z AUTO 01010KT CAVOK 21/11 Q1016 NOSIG
1:00 am
V
72 °F 6¼ mi+ - 020° 020° 10 kt METAR LFMT 272300Z AUTO 02010KT CAVOK 22/12 Q1016 NOSIG
12:30 am
V
72 °F 6¼ mi+ - 340° 340° 7 kt METAR LFMT 272230Z AUTO 34007KT CAVOK 22/12 Q1017 NOSIG
12:00 am
V
73 °F 6¼ mi+ - 330° 330° 6 kt METAR LFMT 272200Z AUTO 33006KT CAVOK 23/12 Q1017 NOSIG

27. Mai 2022

Uhrzeit Code Wetter Temp. Sichtweite Wolkendecke Wind METAR/SPECI
11:30 pm
V
75 °F 6¼ mi+ - 330° 330° 5 kt METAR LFMT 272130Z AUTO 33005KT CAVOK 24/12 Q1017 NOSIG
11:00 pm
V
75 °F 6¼ mi+ - 330° 330° 6 kt METAR LFMT 272100Z AUTO 33006KT CAVOK 24/12 Q1016 NOSIG
10:30 pm
V
77 °F 6¼ mi+ - 340° 340° 4 kt METAR LFMT 272030Z AUTO 34004KT 300V030 CAVOK 25/12 Q1016 NOSIG
10:00 pm
V
77 °F 6¼ mi+ - 030° 030° 5 kt METAR LFMT 272000Z AUTO 03005KT CAVOK 25/12 Q1016 NOSIG
9:30 pm
V
77 °F 6¼ mi+ - 050° 050° 5 kt METAR LFMT 271930Z AUTO 05005KT CAVOK 25/12 Q1016 NOSIG
9:00 pm
V
79 °F 6¼ mi+ - 040° 040° 7 kt METAR LFMT 271900Z AUTO 04007KT CAVOK 26/12 Q1016 NOSIG
8:30 pm
V
82 °F 6¼ mi+ - 040° 040° 7 kt METAR LFMT 271830Z AUTO 04007KT CAVOK 28/13 Q1015 NOSIG
8:00 pm
V
84 °F 6¼ mi+ - 090° 090° 6 kt METAR LFMT 271800Z AUTO 09006KT 060V120 CAVOK 29/15 Q1015 NOSIG
7:30 pm
V
88 °F 6¼ mi+ - 210° 210° 4 kt METAR LFMT 271730Z AUTO 21004KT CAVOK 31/14 Q1015 BECMG 02010KT
7:00 pm
V
88 °F 6¼ mi+ - 220° 220° 6 kt METAR LFMT 271700Z AUTO 22006KT CAVOK 31/13 Q1015 BECMG 02010KT
6:30 pm
V
88 °F 6¼ mi+ - 220° 220° 7 kt METAR LFMT 271630Z AUTO 22007KT CAVOK 31/13 Q1015 BECMG 02010KT
6:00 pm
V
88 °F 6¼ mi+ - 210° 210° 9 kt METAR LFMT 271600Z AUTO 21009KT CAVOK 31/13 Q1015 BECMG 02010KT
5:30 pm
V
88 °F 6¼ mi+ - 210° 210° 6 kt METAR LFMT 271530Z AUTO 21006KT CAVOK 31/13 Q1016 BECMG 02010KT
5:00 pm
V
90 °F 6¼ mi+ - 020° 020° 10 kt METAR LFMT 271500Z AUTO 02010KT CAVOK 32/11 Q1016 NOSIG
4:30 pm
V
90 °F 6¼ mi+ - 010° 010° 8 kt METAR LFMT 271430Z AUTO 01008KT 320V060 CAVOK 32/11 Q1016 NOSIG
4:00 pm
V
90 °F 6¼ mi+ - 030° 030° 8 kt METAR LFMT 271400Z AUTO 03008KT 340V050 CAVOK 32/12 Q1017 NOSIG
3:30 pm
V
88 °F 6¼ mi+ - 010° 010° 10 kt METAR LFMT 271330Z AUTO 01010KT 320V060 CAVOK 31/12 Q1017 NOSIG
3:00 pm
V
88 °F 6¼ mi+ - 020° 020° 11 kt METAR LFMT 271300Z AUTO 02011KT 320V070 CAVOK 31/12 Q1018 NOSIG
2:30 pm
V
88 °F 6¼ mi+ - 020° 020° 11 kt METAR LFMT 271230Z AUTO 02011KT 340V060 CAVOK 31/12 Q1018 NOSIG
2:00 pm
V
86 °F 6¼ mi+ - 020° 020° 12 kt METAR LFMT 271200Z AUTO 02012KT CAVOK 30/11 Q1018 NOSIG
1:30 pm
V
84 °F 6¼ mi+ - 020° 020° 15 kt METAR LFMT 271130Z AUTO 02015KT CAVOK 29/11 Q1018 NOSIG
1:00 pm
V
84 °F 6¼ mi+ - 360° 360° 12 kt METAR LFMT 271100Z AUTO 36012KT 320V030 CAVOK 29/11 Q1019 NOSIG
12:30 pm
V
81 °F 6¼ mi+ - 350° 350° 11 kt METAR LFMT 271030Z AUTO 35011KT 330V030 CAVOK 27/12 Q1019 NOSIG
12:00 pm
V
79 °F 6¼ mi+ - 360° 360° 10 kt METAR LFMT 271000Z AUTO 36010KT 280V040 CAVOK 26/12 Q1020 NOSIG
11:30 am
V
75 °F 6¼ mi+ - 350° 350° 11 kt METAR LFMT 270930Z AUTO 35011KT CAVOK 24/11 Q1020 NOSIG
11:00 am
V
73 °F 6¼ mi+ - 330° 330° 10 kt METAR LFMT 270900Z AUTO 33010KT CAVOK 23/12 Q1020 NOSIG
10:30 am
V
72 °F 6¼ mi+ - 320° 320° 9 kt METAR LFMT 270830Z AUTO 32009KT 290V350 CAVOK 22/11 Q1020 NOSIG
10:00 am
V
70 °F 6¼ mi+ - 340° 340° 5 kt METAR LFMT 270800Z AUTO 34005KT 300V360 CAVOK 21/11 Q1020 NOSIG
9:30 am
V
70 °F 6¼ mi+ - 310° 310° 3 kt METAR LFMT 270730Z AUTO 31003KT 280V340 CAVOK 21/11 Q1020 NOSIG
9:00 am
V
68 °F 6¼ mi+ - 320° 320° 6 kt METAR LFMT 270700Z AUTO 32006KT CAVOK 20/10 Q1020 NOSIG
8:30 am
V
68 °F 6¼ mi+ - 320° 320° 7 kt METAR LFMT 270630Z AUTO 32007KT CAVOK 20/10 Q1020 NOSIG
8:00 am
V
64 °F 6¼ mi+ - 310° 310° 5 kt METAR LFMT 270600Z AUTO 31005KT CAVOK 18/11 Q1020 NOSIG
7:30 am
V
61 °F 6¼ mi+ - Var Var 2 kt METAR LFMT 270530Z AUTO VRB02KT CAVOK 16/10 Q1020 BECMG 36012KT
7:00 am
V
61 °F 6¼ mi+ - 030° 030° 2 kt METAR LFMT 270500Z AUTO 03002KT CAVOK 16/10 Q1020 BECMG 36012KT
6:30 am
V
61 °F 6¼ mi+ - 360° 360° 4 kt METAR LFMT 270430Z AUTO 36004KT 340V040 CAVOK 16/09 Q1020 NOSIG
6:00 am
V
63 °F 6¼ mi+ - 330° 330° 7 kt METAR LFMT 270400Z AUTO 33007KT CAVOK 17/09 Q1019 NOSIG
5:30 am
V
64 °F 6¼ mi+ - 340° 340° 6 kt METAR LFMT 270330Z AUTO 34006KT CAVOK 18/09 Q1019 NOSIG
5:00 am
V
66 °F 6¼ mi+ - 320° 320° 10 kt METAR LFMT 270300Z AUTO 32010KT CAVOK 19/09 Q1019 NOSIG
4:30 am
V
66 °F 6¼ mi+ - 310° 310° 9 kt METAR LFMT 270230Z AUTO 31009KT CAVOK 19/09 Q1020 NOSIG
4:00 am
V
68 °F 6¼ mi+ - 300° 300° 8 kt METAR LFMT 270200Z AUTO 30008KT CAVOK 20/09 Q1020 NOSIG
3:30 am
V
68 °F 6¼ mi+ - 300° 300° 7 kt METAR LFMT 270130Z AUTO 30007KT CAVOK 20/09 Q1020 NOSIG
3:00 am
V
70 °F 6¼ mi+ - 300° 300° 8 kt METAR LFMT 270100Z AUTO 30008KT CAVOK 21/09 Q1020 NOSIG
2:30 am
V
70 °F 6¼ mi+ - 300° 300° 7 kt METAR LFMT 270030Z AUTO 30007KT CAVOK 21/09 Q1021 NOSIG
2:00 am
V
70 °F 6¼ mi+ - 310° 310° 7 kt METAR LFMT 270000Z AUTO 31007KT CAVOK 21/09 Q1021 NOSIG
1:30 am
V
72 °F 6¼ mi+ - 310° 310° 10 kt METAR LFMT 262330Z AUTO 31010KT CAVOK 22/09 Q1021 NOSIG
1:00 am
V
72 °F 6¼ mi+ - 310° 310° 8 kt METAR LFMT 262300Z AUTO 31008KT CAVOK 22/10 Q1021 NOSIG
12:30 am
V
72 °F 6¼ mi+ - 310° 310° 7 kt METAR LFMT 262230Z AUTO 31007KT CAVOK 22/10 Q1021 NOSIG
12:00 am
V
72 °F 6¼ mi+ - 320° 320° 9 kt METAR LFMT 262200Z AUTO 32009KT CAVOK 22/10 Q1021 NOSIG

26. Mai 2022

Uhrzeit Code Wetter Temp. Sichtweite Wolkendecke Wind METAR/SPECI
11:30 pm
V
73 °F 6¼ mi+ - 340° 340° 10 kt METAR LFMT 262130Z AUTO 34010KT CAVOK 23/09 Q1021 NOSIG
11:00 pm
V
73 °F 6¼ mi+ - 360° 360° 11 kt METAR LFMT 262100Z AUTO 36011KT CAVOK 23/09 Q1021 NOSIG
10:30 pm
V
75 °F 6¼ mi+ - 360° 360° 10 kt METAR LFMT 262030Z AUTO 36010KT CAVOK 24/10 Q1021 NOSIG
10:00 pm
V
75 °F 6¼ mi+ - 010° 010° 13 kt METAR LFMT 262000Z AUTO 01013KT CAVOK 24/10 Q1020 NOSIG
9:30 pm
V
77 °F 6¼ mi+ - 010° 010° 10 kt METAR LFMT 261930Z AUTO 01010KT 330V030 CAVOK 25/10 Q1020 NOSIG
9:00 pm
V
79 °F 6¼ mi+ - 050° 050° 7 kt METAR LFMT 261900Z AUTO 05007KT CAVOK 26/11 Q1019 NOSIG
8:30 pm
V
81 °F 6¼ mi+ - 060° 060° 11 kt METAR LFMT 261830Z AUTO 06011KT CAVOK 27/11 Q1019 NOSIG
8:00 pm
V
82 °F 6¼ mi+ - 050° 050° 11 kt METAR LFMT 261800Z AUTO 05011KT CAVOK 28/10 Q1018 NOSIG
7:30 pm
V
84 °F 6¼ mi+ - 080° 080° 5 kt METAR LFMT 261730Z AUTO 08005KT 040V140 CAVOK 29/10 Q1018 NOSIG
7:00 pm
V
84 °F 6¼ mi+ - Var Var 2 kt METAR LFMT 261700Z AUTO VRB02KT CAVOK 29/10 Q1018 NOSIG
6:30 pm
V
84 °F 6¼ mi+ - 230° 230° 4 kt METAR LFMT 261630Z AUTO 23004KT 140V280 CAVOK 29/10 Q1018 BECMG 01010KT
6:00 pm
V
84 °F 6¼ mi+ - Var Var 4 kt METAR LFMT 261600Z AUTO VRB04KT CAVOK 29/12 Q1018 NOSIG
5:30 pm
V
84 °F 6¼ mi+ - 180° 180° 5 kt METAR LFMT 261530Z AUTO 18005KT 120V220 CAVOK 29/11 Q1018 BECMG 01010KT
5:00 pm
V
86 °F 6¼ mi+ - 040° 040° 7 kt METAR LFMT 261500Z AUTO 04007KT 360V100 CAVOK 30/10 Q1018 NOSIG
Ältere Daten

Laden Sie unsere App herunter

Einfacher Zugriff auf das gesamte Flugwetter auf Ihrem Mobiltelefon und Tablet.
Mit vielen Funktionen, die auf der Website nicht verfügbar sind, wie Offline-Unterstützung und eine persönliche Flughafenliste.

Wir und Dritte verfolgen dein Internetverhalten auf unserer Website mit Cookies. Wenn du fortfährst, gehen wir davon aus, dass du mit unserer Cookie-Richtlinie einverstanden bist. Mehr erfahren